Toms River, NJ (08753)

10:06 AM EDT on August 04, 2015 (GMT -0400)
Deer Hollow | | Change Station
CLOSE
Current Station
Personal Weather Station
Location: Toms River, NJ
Elevation: 40 ft
Nearby Weather Stations

Elev 40 ft 39.96 °N, 74.15 °W | Updated 4 seconds ago

Partly Cloudy
Partly Cloudy
82.2 °F
Feels Like 86 °F
N
1.0
Wind Variable Wind from NNW
Gusts 1.0 mph

Today
High -- | Low -- °F
--% Chance of Precip.
Yesterday
High -- | Low -- °F
Precip. -- in
5:57 AM 8:07 PM
Waning Gibbous, 77% visible
Pressure 29.87 in
Visibility 10.0 miles
Clouds Clear
Heat Index 86 °F
Dew Point 71 °F
Humidity 68%
Rainfall 0.00 in
Snow Depth Not available.
UV 6 out of 12
Pollen 7.80 out of 12
Air Quality Not available.
Flu Activity Not available.
METAR KNEL 041400Z AUTO 25013KT 10SM CLR 28/19 A2988 RMK AO2 SLP115 T02780189

More Conditions Fewer Conditions

Pressure 29.87 in
Visibility 10.0 miles
Clouds Clear
Heat Index 86 °F
Dew Point 71 °F
Humidity 68%
Rainfall 0.00 in
Snow Depth Not available.
UV 6 out of 12
Pollen 7.80 out of 12
Air Quality Not available.
Flu Activity Not available.
METAR KNEL 041400Z AUTO 25013KT 10SM CLR 28/19 A2988 RMK AO2 SLP115 T02780189

More Conditions Fewer Conditions

10-Day Weather Forecast

×

Almanac

Astronomy

Aug. 04, 2015 Rise Set
Actual Time
Civil Twilight
Nautical Twilight
Astronomical Twilight
Moon
Length of Visible Light
Length of Day
Tomorrow will be .
, % of the Moon is Illuminated

Today's Extremes

State Highs State Lows

Community

WunderPhotos

Upload Photos

1,843,912 photos uploaded!

WunderBlogs® & News

Nearby

Air Quality

  Air Quality AQ Index Pollutant
Not available.

Snow Depth

Station Depth Elevation

Earthquake Activity

City Distance Mag. Time & Date
Minimum magnitude displayed is 2.5.

Coastal Water Temperatures

Place Temperature

Stations

Nearby Weather Stations

Station Location Temp. Windchill Dew Point Humidity Wind Precip. Elev Updated Type